メインページ
METAR-TAF:

METAR-TAF

空港 :

ディオリ・アマニ国際空港

ニアメ, ニジェール

緯度: 13-29N, 経度: 002-10E, 海抜: 223m

現時点の気象観測

当レポートは38分前の11:00(UTC)に作成
西の風 8kt、西/南西から北西の間で変化する
気温 33°C
湿度 53%
気圧 1012 hPa
視程10km以上
1,500メートル以下は雲なし、積乱雲なし

METAR: DRRN 241100Z 27008KT 240V320 CAVOK 33/22 Q1012 NOSIG

時間: 12:38 (11:38 UTC)

予報

当レポートは6時間38分前の05:00(UTC)に作成
予報は24日の 06時(UTC)から 25日の 12時(UTC)まで有効
西/南西の風 10kt
視程: 8000m
高度3000ftの雲はほとんどない
確率 30% :
24日の 18時(UTC)から 24日の 24時(UTC)まで一時的に
視程: 4000m
高度2000ftの雲は散在している
高度3300ftの雲はほとんどない, 積乱雲.
激しい雷雨, にわか雨

TAF: DRRN 240500Z 2406/2512 24010KT 8000 FEW030 PROB30 TEMPO 2418/2424 4000 TS SHRA SCT020 FEW033CB

4,000以上の空港の気象観測と天気予報(METAR報とTAF報)

利用可能な観測所は地図上に黄色い丸と赤い丸で示す。

丸の上にカーソルを重ねると観測所名を参照できる。

次にクリックすると気象観測と天気予報を参照できる。

マップの切り替え:黒色「×」印の緑ボタンをクリックして拡大、「-」印の緑ボタンをクリックして縮小、緑色の三角印をクリックして隣りの地図に切り替え


METAR-TAF: